createdAt,value
2018-06-09T00:00:59.359Z,48.40
2018-06-09T00:03:27.483Z,48.70
2018-06-09T00:05:55.603Z,49.30
2018-06-09T00:08:23.716Z,48.70
2018-06-09T00:10:51.766Z,48.90
2018-06-09T00:13:19.907Z,49.10
2018-06-09T00:15:48.003Z,49.30
2018-06-09T00:18:16.115Z,49.60
2018-06-09T00:20:44.263Z,50.30
2018-06-09T00:23:12.341Z,50.40
2018-06-09T00:28:08.394Z,50.90
2018-06-09T00:30:36.487Z,51.10
2018-06-09T00:33:04.595Z,51.20
2018-06-09T00:35:32.679Z,51.60
2018-06-09T00:38:00.754Z,51.80
2018-06-09T00:40:28.850Z,51.90
2018-06-09T00:42:56.979Z,52.00
2018-06-09T00:45:25.050Z,52.10
2018-06-09T00:47:53.131Z,51.90
2018-06-09T00:50:21.195Z,51.80
2018-06-09T00:52:49.301Z,51.80
2018-06-09T00:55:17.419Z,52.00
2018-06-09T00:57:45.488Z,51.70
2018-06-09T01:00:20.121Z,51.80
2018-06-09T01:02:48.228Z,52.00
2018-06-09T01:05:16.384Z,51.90
2018-06-09T01:07:44.543Z,52.10
2018-06-09T01:10:12.630Z,52.20
2018-06-09T01:12:40.748Z,52.40
2018-06-09T01:15:08.845Z,52.50
2018-06-09T01:17:36.923Z,52.50
2018-06-09T01:20:05.018Z,52.30
2018-06-09T01:22:33.115Z,52.20
2018-06-09T01:25:01.186Z,52.20
2018-06-09T01:27:29.320Z,52.20
2018-06-09T01:29:57.431Z,52.50
2018-06-09T01:32:25.495Z,52.70
2018-06-09T01:34:53.571Z,52.70
2018-06-09T01:37:21.650Z,52.90
2018-06-09T01:39:49.775Z,53.20
2018-06-09T01:42:17.855Z,53.10
2018-06-09T01:44:45.953Z,53.30
2018-06-09T01:47:14.035Z,53.40
2018-06-09T01:49:42.165Z,53.60
2018-06-09T01:52:10.267Z,53.40
2018-06-09T01:54:38.371Z,53.50
2018-06-09T01:57:06.471Z,53.40
2018-06-09T01:59:34.582Z,53.60
2018-06-09T02:02:02.655Z,53.80
2018-06-09T02:04:30.770Z,53.40
2018-06-09T02:06:58.872Z,53.50
2018-06-09T02:09:26.941Z,53.30
2018-06-09T02:11:55.028Z,53.70
2018-06-09T02:14:23.159Z,53.90
2018-06-09T02:16:51.332Z,54.00
2018-06-09T02:19:19.423Z,54.20
2018-06-09T02:21:47.528Z,54.40
2018-06-09T02:24:15.589Z,54.60
2018-06-09T02:29:11.543Z,55.10
2018-06-09T02:31:39.646Z,55.20
2018-06-09T02:34:07.756Z,55.10
2018-06-09T02:36:35.827Z,55.00
2018-06-09T02:39:05.552Z,54.70
2018-06-09T02:41:33.635Z,54.60
2018-06-09T02:44:01.726Z,54.60
2018-06-09T02:46:29.782Z,54.70
2018-06-09T02:51:25.795Z,54.70
2018-06-09T02:53:54.541Z,54.80
2018-06-09T02:56:22.640Z,55.00
2018-06-09T02:58:50.705Z,55.40
2018-06-09T03:01:18.832Z,55.40
2018-06-09T03:03:46.878Z,55.60
2018-06-09T03:06:15.013Z,55.60
2018-06-09T03:08:43.111Z,56.30
2018-06-09T03:11:11.207Z,56.50
2018-06-09T03:13:39.311Z,56.40
2018-06-09T03:16:07.418Z,56.60
2018-06-09T03:18:35.503Z,56.60
2018-06-09T03:21:03.598Z,56.90
2018-06-09T03:23:31.716Z,57.10
2018-06-09T03:25:59.813Z,56.70
2018-06-09T03:28:28.005Z,56.50
2018-06-09T03:30:56.127Z,56.30
2018-06-09T03:33:24.211Z,56.40
2018-06-09T03:35:52.311Z,56.10
2018-06-09T03:38:20.455Z,56.20
2018-06-09T03:40:48.540Z,56.20
2018-06-09T03:43:16.780Z,55.90
2018-06-09T03:45:44.809Z,56.00
2018-06-09T03:48:12.893Z,56.00
2018-06-09T03:50:40.946Z,56.10
2018-06-09T03:53:09.052Z,56.10
2018-06-09T03:55:37.162Z,55.70
2018-06-09T04:00:33.146Z,55.40
2018-06-09T04:03:01.299Z,55.20
2018-06-09T04:05:29.404Z,55.30
2018-06-09T04:07:57.511Z,55.40
2018-06-09T04:10:25.648Z,55.30
2018-06-09T04:12:53.843Z,55.70
2018-06-09T04:15:21.998Z,55.60
2018-06-09T04:17:50.068Z,55.60
2018-06-09T04:20:18.198Z,55.60
2018-06-09T04:22:46.315Z,55.50
2018-06-09T04:25:14.403Z,55.50
2018-06-09T04:27:42.534Z,55.50
2018-06-09T04:30:10.626Z,55.30
2018-06-09T04:32:38.781Z,55.40
2018-06-09T04:35:06.888Z,55.30
2018-06-09T04:37:35.002Z,55.40
2018-06-09T04:40:03.126Z,55.70
2018-06-09T04:42:31.376Z,55.80
2018-06-09T04:44:59.483Z,55.90
2018-06-09T04:47:27.564Z,55.80
2018-06-09T04:49:55.666Z,55.50
2018-06-09T04:52:23.744Z,55.20
2018-06-09T04:54:51.820Z,55.20
2018-06-09T04:57:19.970Z,55.70
2018-06-09T04:59:48.064Z,54.80
2018-06-09T05:02:16.193Z,55.00
2018-06-09T05:04:44.965Z,54.60
2018-06-09T05:07:13.109Z,54.70
2018-06-09T05:09:41.225Z,54.10
2018-06-09T05:12:09.347Z,54.00
2018-06-09T05:14:37.446Z,53.70
2018-06-09T05:17:06.030Z,54.40
2018-06-09T05:22:02.070Z,54.10
2018-06-09T05:29:26.111Z,52.90
2018-06-09T05:31:54.296Z,52.90
2018-06-09T05:34:22.369Z,52.60
2018-06-09T05:36:50.543Z,52.60
2018-06-09T05:39:18.651Z,51.40
2018-06-09T05:41:46.718Z,50.60
2018-06-09T05:44:14.848Z,49.10
2018-06-09T05:46:42.945Z,47.90
2018-06-09T05:49:11.095Z,47.80
2018-06-09T05:51:39.206Z,46.30
2018-06-09T05:54:07.512Z,45.50
2018-06-09T05:56:38.998Z,44.40
2018-06-09T05:59:07.076Z,43.60
2018-06-09T06:01:35.227Z,43.20
2018-06-09T06:04:03.319Z,42.40
2018-06-09T06:06:31.403Z,42.10
2018-06-09T06:08:59.496Z,41.50
2018-06-09T06:11:27.698Z,41.60
2018-06-09T06:13:55.771Z,41.40
2018-06-09T06:16:23.911Z,40.70
2018-06-09T06:18:52.101Z,41.50
2018-06-09T06:21:20.192Z,40.80
2018-06-09T06:23:48.306Z,40.70
2018-06-09T06:26:16.413Z,40.60
2018-06-09T06:28:44.527Z,40.50
2018-06-09T06:31:12.625Z,39.20
2018-06-09T06:33:40.724Z,40.10
2018-06-09T06:36:08.904Z,39.70
2018-06-09T06:38:37.011Z,39.00
2018-06-09T06:41:05.338Z,39.10
2018-06-09T06:43:33.415Z,37.80
2018-06-09T06:46:01.495Z,38.50
2018-06-09T06:48:29.617Z,37.90
2018-06-09T06:50:57.742Z,36.80
2018-06-09T06:53:25.900Z,37.00
2018-06-09T06:55:54.245Z,36.30
2018-06-09T06:58:22.376Z,36.40
2018-06-09T07:00:50.442Z,36.30
2018-06-09T07:03:18.536Z,36.10
2018-06-09T07:05:46.651Z,35.80
2018-06-09T07:08:14.737Z,34.90
2018-06-09T07:10:42.859Z,35.00
2018-06-09T07:13:10.947Z,34.60
2018-06-09T07:15:39.076Z,34.90
2018-06-09T07:18:07.196Z,34.50
2018-06-09T07:20:35.322Z,33.80
2018-06-09T07:23:03.427Z,33.80
2018-06-09T07:25:31.596Z,33.30
2018-06-09T07:27:59.729Z,33.00
2018-06-09T07:30:27.976Z,33.60
2018-06-09T07:32:56.106Z,32.70
2018-06-09T07:35:24.246Z,33.50
2018-06-09T07:37:52.387Z,32.50
2018-06-09T07:40:20.515Z,32.90
2018-06-09T07:42:48.629Z,32.30
2018-06-09T07:45:16.758Z,30.70
2018-06-09T07:47:44.861Z,29.00
2018-06-09T07:50:13.038Z,28.60
2018-06-09T07:52:41.191Z,27.40
2018-06-09T07:55:09.322Z,26.00
2018-06-09T07:57:37.469Z,25.90
2018-06-09T08:00:05.599Z,25.30
2018-06-09T08:02:33.774Z,25.60
2018-06-09T08:05:01.861Z,25.80
2018-06-09T08:07:29.948Z,26.00
2018-06-09T08:09:58.088Z,25.80
2018-06-09T08:12:26.204Z,26.80
2018-06-09T08:14:54.311Z,26.90
2018-06-09T08:17:22.644Z,27.10
2018-06-09T08:19:50.783Z,27.80
2018-06-09T08:22:18.871Z,28.30
2018-06-09T08:24:46.923Z,28.20
2018-06-09T08:27:15.649Z,28.00
2018-06-09T08:29:43.725Z,28.10
2018-06-09T08:34:39.738Z,28.20
2018-06-09T08:37:07.881Z,27.80
2018-06-09T08:39:35.994Z,27.70
2018-06-09T08:44:32.010Z,27.00
2018-06-09T08:47:00.106Z,27.30
2018-06-09T08:49:28.388Z,27.40
2018-06-09T08:51:56.514Z,27.70
2018-06-09T08:54:24.793Z,27.50
2018-06-09T08:56:52.871Z,27.90
2018-06-09T08:59:20.980Z,27.70
2018-06-09T09:01:49.121Z,27.90
2018-06-09T09:04:17.219Z,27.40
2018-06-09T09:06:45.300Z,26.90
2018-06-09T09:09:13.424Z,27.20
2018-06-09T09:11:41.505Z,26.50
2018-06-09T09:14:09.655Z,26.20
2018-06-09T09:16:37.747Z,26.40
2018-06-09T09:19:05.850Z,25.50
2018-06-09T09:21:33.965Z,25.40
2018-06-09T09:26:30.012Z,26.10
2018-06-09T09:28:58.081Z,26.20
2018-06-09T09:33:54.113Z,26.00
2018-06-09T09:36:22.220Z,25.70
2018-06-09T09:38:50.524Z,26.00
2018-06-09T09:41:18.622Z,25.50
2018-06-09T09:43:46.697Z,25.90
2018-06-09T09:46:14.853Z,25.50
2018-06-09T09:48:42.930Z,25.80
2018-06-09T09:51:11.066Z,25.90
2018-06-09T09:53:39.112Z,25.60
2018-06-09T09:58:35.218Z,25.00
2018-06-09T10:01:03.386Z,25.20
2018-06-09T10:03:31.470Z,24.60
2018-06-09T10:05:59.697Z,24.60
2018-06-09T10:10:55.739Z,24.70
2018-06-09T10:13:23.847Z,24.20
2018-06-09T10:15:51.949Z,23.90
2018-06-09T10:18:20.018Z,24.40
2018-06-09T10:20:48.091Z,24.00
2018-06-09T10:23:16.194Z,23.70
2018-06-09T10:25:44.373Z,23.70
2018-06-09T10:28:12.467Z,23.90
2018-06-09T10:30:40.686Z,23.60
2018-06-09T10:33:08.792Z,23.60
2018-06-09T10:35:36.872Z,23.60
2018-06-09T10:38:05.022Z,23.10
2018-06-09T10:40:33.126Z,23.20
2018-06-09T10:43:01.203Z,22.70
2018-06-09T10:45:29.274Z,22.70
2018-06-09T10:47:57.375Z,23.00
2018-06-09T10:50:25.467Z,22.40
2018-06-09T10:52:53.547Z,23.20
2018-06-09T10:55:21.662Z,22.90
2018-06-09T10:57:49.745Z,22.50
2018-06-09T11:00:17.818Z,22.80
2018-06-09T11:02:45.979Z,22.50
2018-06-09T11:05:14.064Z,22.70
2018-06-09T11:07:42.240Z,23.10
2018-06-09T11:10:10.381Z,23.20
2018-06-09T11:12:38.481Z,22.60
2018-06-09T11:15:06.585Z,22.30
2018-06-09T11:17:34.727Z,22.80
2018-06-09T11:20:02.840Z,23.00
2018-06-09T11:22:30.947Z,23.40
2018-06-09T11:24:59.052Z,22.90
2018-06-09T11:27:27.126Z,22.60
2018-06-09T11:29:55.221Z,22.80
2018-06-09T11:32:23.274Z,22.70
2018-06-09T11:34:51.391Z,23.00
2018-06-09T11:37:19.465Z,23.00
2018-06-09T11:39:47.617Z,22.20
2018-06-09T11:42:15.694Z,22.50
2018-06-09T11:44:43.788Z,22.20
2018-06-09T11:47:11.937Z,22.50
2018-06-09T11:49:39.964Z,22.50
2018-06-09T11:52:08.144Z,22.90
2018-06-09T11:57:04.182Z,22.80
2018-06-09T11:59:32.260Z,22.60
2018-06-09T12:04:28.368Z,22.40
2018-06-09T12:06:56.461Z,22.60
2018-06-09T12:09:24.557Z,22.50
2018-06-09T12:14:20.598Z,22.90
2018-06-09T12:16:48.678Z,22.40
2018-06-09T12:21:44.728Z,22.60
2018-06-09T12:26:40.726Z,22.70
2018-06-09T12:29:08.831Z,23.10
2018-06-09T12:31:36.967Z,23.00
2018-06-09T12:34:05.127Z,22.60
2018-06-09T12:36:33.317Z,22.90
2018-06-09T12:39:01.533Z,23.30
2018-06-09T12:43:57.505Z,23.20
2018-06-09T12:46:26.379Z,22.30
2018-06-09T12:48:54.489Z,22.00
2018-06-09T12:51:22.589Z,22.50
2018-06-09T12:53:50.714Z,22.70
2018-06-09T12:56:18.824Z,23.10
2018-06-09T12:58:46.928Z,23.20
2018-06-09T13:01:15.020Z,22.90
2018-06-09T13:03:43.339Z,23.10
2018-06-09T13:06:11.526Z,23.80
2018-06-09T13:08:39.643Z,24.20
2018-06-09T13:13:35.641Z,23.40
2018-06-09T13:16:03.756Z,23.60
2018-06-09T13:18:31.889Z,23.70
2018-06-09T13:21:00.022Z,23.30
2018-06-09T13:23:28.150Z,23.10
2018-06-09T13:25:56.346Z,23.00
2018-06-09T13:28:24.422Z,23.10
2018-06-09T13:30:52.509Z,22.20
2018-06-09T13:33:20.728Z,22.60
2018-06-09T13:35:48.892Z,22.70
2018-06-09T13:38:17.004Z,23.00
2018-06-09T13:40:45.288Z,23.40
2018-06-09T13:43:13.414Z,23.40
2018-06-09T13:45:41.542Z,23.40
2018-06-09T13:48:09.651Z,23.40
2018-06-09T13:50:39.019Z,23.50
2018-06-09T13:53:07.231Z,24.00
2018-06-09T13:55:35.448Z,23.90
2018-06-09T13:58:03.518Z,24.00
2018-06-09T14:00:31.578Z,24.20
2018-06-09T14:02:59.670Z,24.10
2018-06-09T14:05:28.002Z,23.70
2018-06-09T14:07:56.308Z,23.80
2018-06-09T14:10:24.688Z,24.00
2018-06-09T14:12:52.819Z,23.00
2018-06-09T14:15:21.011Z,23.10
2018-06-09T14:17:49.163Z,23.30
2018-06-09T14:20:17.620Z,23.30
2018-06-09T14:22:46.169Z,23.20
2018-06-09T14:25:14.281Z,22.80
2018-06-09T14:27:42.383Z,23.30
2018-06-09T14:30:10.906Z,23.00
2018-06-09T14:32:39.126Z,23.10
2018-06-09T14:35:07.212Z,23.90
2018-06-09T14:37:35.321Z,24.20
2018-06-09T14:40:03.424Z,24.50
2018-06-09T14:42:33.649Z,24.60
2018-06-09T14:45:02.058Z,24.30
2018-06-09T14:47:30.342Z,24.50
2018-06-09T14:52:26.411Z,24.10
2018-06-09T14:54:54.511Z,24.10
2018-06-09T14:57:22.631Z,24.30
2018-06-09T14:59:50.743Z,24.10
2018-06-09T15:02:18.879Z,23.80
2018-06-09T15:04:47.034Z,23.80
2018-06-09T15:07:15.175Z,23.90
2018-06-09T15:09:43.350Z,24.20
2018-06-09T15:12:11.609Z,24.00
2018-06-09T15:14:39.782Z,24.00
2018-06-09T15:17:07.953Z,23.80
2018-06-09T15:19:36.106Z,24.10
2018-06-09T15:22:04.200Z,23.90
2018-06-09T15:24:32.346Z,24.30
2018-06-09T15:27:00.417Z,24.40
2018-06-09T15:29:28.488Z,23.60
2018-06-09T15:34:24.615Z,23.50
2018-06-09T15:36:52.801Z,23.20
2018-06-09T15:39:20.969Z,23.60
2018-06-09T15:41:49.207Z,23.90
2018-06-09T15:44:17.322Z,24.10
2018-06-09T15:46:45.782Z,24.00
2018-06-09T15:49:13.854Z,24.30
2018-06-09T15:51:41.926Z,24.20
2018-06-09T15:54:10.024Z,24.00
2018-06-09T15:56:38.168Z,24.20
2018-06-09T15:59:06.251Z,23.60
2018-06-09T16:01:34.422Z,23.60
2018-06-09T16:04:02.498Z,23.90
2018-06-09T16:06:30.644Z,23.50
2018-06-09T16:08:58.909Z,23.90
2018-06-09T16:11:26.988Z,23.90
2018-06-09T16:13:55.095Z,24.20
2018-06-09T16:16:23.259Z,24.30
2018-06-09T16:18:51.391Z,24.00
2018-06-09T16:21:19.465Z,23.60
2018-06-09T16:23:47.522Z,24.00
2018-06-09T16:26:15.625Z,24.30
2018-06-09T16:31:11.728Z,25.20
2018-06-09T16:33:39.830Z,25.10
2018-06-09T16:36:07.932Z,25.30
2018-06-09T16:38:36.051Z,25.30
2018-06-09T16:41:04.234Z,25.50
2018-06-09T16:43:32.394Z,25.40
2018-06-09T16:46:00.522Z,25.50
2018-06-09T16:48:28.689Z,25.70
2018-06-09T16:50:56.867Z,25.90
2018-06-09T16:53:25.012Z,25.80
2018-06-09T16:55:53.138Z,25.70
2018-06-09T16:58:21.200Z,25.90
2018-06-09T17:00:49.305Z,25.60
2018-06-09T17:03:17.427Z,25.90
2018-06-09T17:05:45.527Z,26.00
2018-06-09T17:08:13.666Z,26.10
2018-06-09T17:10:41.729Z,26.10
2018-06-09T17:13:09.830Z,25.70
2018-06-09T17:15:38.962Z,26.20
2018-06-09T17:18:07.088Z,26.30
2018-06-09T17:20:35.207Z,26.50
2018-06-09T17:23:03.322Z,26.70
2018-06-09T17:25:31.412Z,26.60
2018-06-09T17:27:59.480Z,26.70
2018-06-09T17:30:27.596Z,26.80
2018-06-09T17:32:55.673Z,26.60
2018-06-09T17:35:23.782Z,26.80
2018-06-09T17:37:51.906Z,26.80
2018-06-09T17:40:19.962Z,27.00
2018-06-09T17:42:48.080Z,27.30
2018-06-09T17:45:16.536Z,27.50
2018-06-09T17:47:44.643Z,27.60
2018-06-09T17:50:12.763Z,27.70
2018-06-09T17:52:40.927Z,28.00
2018-06-09T17:55:09.089Z,28.30
2018-06-09T17:57:37.359Z,28.50
2018-06-09T18:00:06.090Z,28.60
2018-06-09T18:02:34.311Z,28.80
2018-06-09T18:05:02.602Z,28.90
2018-06-09T18:07:30.714Z,29.10
2018-06-09T18:09:59.887Z,29.40
2018-06-09T18:12:28.095Z,29.70
2018-06-09T18:14:56.264Z,29.70
2018-06-09T18:17:24.455Z,30.00
2018-06-09T18:19:52.972Z,30.20
2018-06-09T18:22:21.143Z,30.30
2018-06-09T18:24:49.282Z,30.60
2018-06-09T18:27:17.392Z,30.70
2018-06-09T18:29:45.536Z,30.90
2018-06-09T18:32:13.639Z,30.70
2018-06-09T18:34:41.741Z,30.90
2018-06-09T18:39:37.800Z,37.70
2018-06-09T18:44:36.065Z,40.80
2018-06-09T18:47:04.311Z,41.40
2018-06-09T18:49:32.447Z,42.10
2018-06-09T18:52:00.646Z,42.90
2018-06-09T18:54:28.754Z,43.30
2018-06-09T18:56:56.870Z,43.80
2018-06-09T18:59:24.971Z,43.90
2018-06-09T19:01:53.082Z,44.30
2018-06-09T19:04:22.162Z,44.40
2018-06-09T19:06:50.273Z,44.90
2018-06-09T19:09:18.399Z,45.50
2018-06-09T19:11:46.508Z,45.40
2018-06-09T19:14:14.669Z,46.00
2018-06-09T19:16:42.821Z,45.90
2018-06-09T19:19:10.995Z,45.80
2018-06-09T19:21:39.175Z,45.80
2018-06-09T19:24:07.303Z,46.00
2018-06-09T19:26:35.572Z,46.50
2018-06-09T19:29:03.756Z,46.70
2018-06-09T19:31:31.863Z,47.20
2018-06-09T19:33:59.957Z,47.90
2018-06-09T19:36:28.124Z,47.90
2018-06-09T19:38:56.263Z,48.30
2018-06-09T19:41:24.349Z,48.50
2018-06-09T19:43:52.497Z,48.40
2018-06-09T19:46:20.597Z,48.60
2018-06-09T19:48:48.681Z,49.30
2018-06-09T19:51:16.779Z,49.00
2018-06-09T19:53:44.907Z,49.20
2018-06-09T19:56:13.078Z,49.30
2018-06-09T19:58:41.178Z,49.90
2018-06-09T20:01:09.260Z,49.70
2018-06-09T20:03:37.531Z,50.10
2018-06-09T20:06:05.655Z,50.20
2018-06-09T20:08:33.759Z,50.70
2018-06-09T20:11:01.844Z,50.80
2018-06-09T20:13:29.941Z,51.00
2018-06-09T20:15:58.116Z,51.10
2018-06-09T20:18:26.228Z,51.20
2018-06-09T20:20:54.337Z,51.50
2018-06-09T20:23:22.579Z,51.80
2018-06-09T20:28:18.596Z,52.30
2018-06-09T20:30:46.754Z,52.60
2018-06-09T20:35:42.737Z,52.80
2018-06-09T20:38:10.827Z,52.70
2018-06-09T20:40:38.933Z,53.10
2018-06-09T20:43:07.058Z,52.40
2018-06-09T20:45:35.172Z,52.70
2018-06-09T20:48:03.485Z,53.10
2018-06-09T20:50:34.945Z,52.70
2018-06-09T20:53:03.062Z,52.90
2018-06-09T20:55:31.208Z,53.10
2018-06-09T20:57:59.348Z,53.10
2018-06-09T21:00:27.504Z,53.40
2018-06-09T21:02:55.645Z,53.60
2018-06-09T21:05:23.725Z,53.70
2018-06-09T21:07:52.243Z,53.80
2018-06-09T21:10:20.336Z,53.70
2018-06-09T21:12:48.433Z,53.80
2018-06-09T21:15:16.541Z,54.10
2018-06-09T21:17:44.653Z,53.80
2018-06-09T21:20:12.823Z,54.50
2018-06-09T21:22:40.998Z,54.80
2018-06-09T21:25:09.143Z,54.90
2018-06-09T21:27:42.590Z,55.20
2018-06-09T21:30:17.234Z,55.20
2018-06-09T21:32:47.197Z,55.30
2018-06-09T21:35:32.511Z,55.60
2018-06-09T21:38:06.036Z,55.70
2018-06-09T21:40:39.646Z,56.20
2018-06-09T21:43:13.234Z,57.00
2018-06-09T21:45:46.930Z,56.80
2018-06-09T21:48:15.108Z,57.50
2018-06-09T21:50:43.187Z,56.90
2018-06-09T21:53:11.296Z,57.10
2018-06-09T21:55:39.431Z,57.20
2018-06-09T21:58:08.610Z,56.90
2018-06-09T22:00:36.717Z,57.50
2018-06-09T22:03:04.937Z,57.30
2018-06-09T22:08:00.987Z,57.00
2018-06-09T22:10:29.141Z,56.60
2018-06-09T22:12:57.258Z,56.50
2018-06-09T22:15:25.347Z,56.30
2018-06-09T22:20:21.370Z,56.30
2018-06-09T22:22:49.513Z,56.40
2018-06-09T22:25:23.171Z,56.30
2018-06-09T22:27:51.282Z,56.30
2018-06-09T22:30:19.389Z,56.50
2018-06-09T22:32:47.510Z,57.10
2018-06-09T22:35:15.610Z,57.20
2018-06-09T22:37:43.709Z,57.20
2018-06-09T22:40:11.799Z,57.30
2018-06-09T22:42:39.975Z,57.50
2018-06-09T22:45:08.113Z,57.60
2018-06-09T22:47:36.703Z,57.60
2018-06-09T22:50:04.808Z,57.60
2018-06-09T22:52:32.906Z,57.90
2018-06-09T22:55:00.968Z,58.80
2018-06-09T22:57:29.075Z,59.00
2018-06-09T22:59:57.197Z,59.10
2018-06-09T23:02:25.450Z,59.70
2018-06-09T23:04:53.462Z,59.90
2018-06-09T23:07:21.636Z,59.70
2018-06-09T23:09:49.838Z,59.70
2018-06-09T23:12:17.953Z,60.00
2018-06-09T23:14:46.038Z,60.40
2018-06-09T23:17:14.314Z,60.90
2018-06-09T23:19:42.465Z,60.80
2018-06-09T23:22:10.615Z,61.00
2018-06-09T23:24:38.784Z,61.90
2018-06-09T23:29:35.238Z,61.70
2018-06-09T23:32:03.542Z,61.90
2018-06-09T23:34:31.651Z,61.80
2018-06-09T23:36:59.832Z,61.80
2018-06-09T23:39:27.979Z,63.00
2018-06-09T23:41:56.069Z,62.80
2018-06-09T23:44:24.175Z,62.80
2018-06-09T23:46:52.329Z,62.90
2018-06-09T23:49:20.616Z,62.90
2018-06-09T23:51:48.822Z,63.60
2018-06-09T23:54:16.927Z,64.40
2018-06-09T23:56:45.023Z,63.70
2018-06-09T23:59:13.133Z,63.70
